Other Aviation Products
Issued by NWS

Home | Current Version | Previous Version | Text Only | Print | Product List | Glossary On
Versions: 1 2 3 4 5 6
000
NOAK58 PAWU 241856
OAVAWU
NATIONAL WEATHER SERVICE ALASKA AVIATION WEATHER UNIT
ANCHORAGE ALASKA

TO:    FORENSIC SERVICES MANAGER (W/OS23)
       NATIONAL WEATHER SERVICE
       C/O TELECOMMUNICATIONS GATEWAY
       SILVER SPRING, MD 20910

INFO:  ATTENTION ALASKA REGION - REGIONAL AVIATION METEOROLOGIST - W/AR1X1
       CORRECTION TO ECHO - TAF DATA.

ALPHA     N3043E, CESSNA 180, PILOT: BRIAN NOLAN

BRAVO     23 AUG 15, 0420Z

CHARLIE   AIRCRAFT CRASHED AT KASILOF, ALASKA, MILE 3.2 CAHOE LOOP ROAD,
          1 ABOARD, FATAL.

DELTA     METAR PAEN 230353Z 29006KT 10SM CLR 18/06 A2965
          METAR PAEN 230453Z 30004KT 10SM CLR 15/08 A2967 RMK AO2 SLP047 T01500078
          METAR PAEN 230453Z 30004KT 10SM CLR 15/08 A2967

ECHO      PAEN 222324Z 2300/2324 23008KT P6SM SKC
          FM230600 34008KT P6SM SCT200=

FOXTROT   PANC SOUNDING 00Z 23 AUG 2015
          FL010 326/06  FL020 340/18  FL030 341/21  FL040 347/24
          FL050 354/22  FL060 360/20  FL070 007/20  FL080 012/14
          FL090 325/07  FL100 331/08

GOLF      ***AIRMET TURB***TIL 10Z W PANC MOD TURB BLW 060.
          ISOL SEV TURB WI 040 AGL. WKN...
          ***AIRMET TURB***07Z TO 10Z PANC S OCNL MOD TURB BLW 040. WKN...

HOTEL     NO PILOT BRIEFING.

DAVID M. EDDY, LEAD FORECASTER, AAWU









USA.gov is the U.S. government's official web portal to all federal, state and local government web resources and services.